createdAt,value
2019-03-29T00:00:29.474Z,12.53
2019-03-29T00:02:57.949Z,12.60
2019-03-29T00:05:26.433Z,14.20
2019-03-29T00:07:54.986Z,13.13
2019-03-29T00:10:23.628Z,14.43
2019-03-29T00:12:52.183Z,11.93
2019-03-29T00:15:20.801Z,13.33
2019-03-29T00:17:49.230Z,13.30
2019-03-29T00:20:17.815Z,12.70
2019-03-29T00:22:46.351Z,12.30
2019-03-29T00:25:14.832Z,11.77
2019-03-29T00:27:44.222Z,11.47
2019-03-29T00:30:13.655Z,10.93
2019-03-29T00:32:42.209Z,11.53
2019-03-29T00:35:10.757Z,12.27
2019-03-29T00:37:52.495Z,12.17
2019-03-29T00:40:09.458Z,10.40
2019-03-29T00:42:38.017Z,9.53
2019-03-29T00:45:08.041Z,10.73
2019-03-29T00:47:36.526Z,8.80
2019-03-29T00:50:07.047Z,9.23
2019-03-29T00:52:35.971Z,10.80
2019-03-29T00:55:05.332Z,9.60
2019-03-29T00:57:33.814Z,9.87
2019-03-29T01:00:02.358Z,10.10
2019-03-29T01:02:30.913Z,9.53
2019-03-29T01:04:59.408Z,9.77
2019-03-29T01:07:28.021Z,9.50
2019-03-29T01:09:56.954Z,8.53
2019-03-29T01:12:25.597Z,10.07
2019-03-29T01:14:54.209Z,8.50
2019-03-29T01:17:22.703Z,9.93
2019-03-29T01:19:51.192Z,9.50
2019-03-29T01:22:20.737Z,9.93
2019-03-29T01:24:49.679Z,9.63
2019-03-29T01:27:19.058Z,8.83
2019-03-29T01:29:47.842Z,9.70
2019-03-29T01:32:16.313Z,10.30
2019-03-29T01:34:44.868Z,9.37
2019-03-29T01:37:13.554Z,9.13
2019-03-29T01:39:42.890Z,9.77
2019-03-29T01:42:11.528Z,10.40
2019-03-29T01:44:40.072Z,10.27
2019-03-29T01:47:08.556Z,9.67
2019-03-29T01:49:37.050Z,8.67
2019-03-29T01:52:05.597Z,10.13
2019-03-29T01:54:34.093Z,9.10
2019-03-29T01:57:02.651Z,9.50
2019-03-29T01:59:31.203Z,9.53
2019-03-29T02:01:59.682Z,8.73
2019-03-29T02:04:28.172Z,9.17
2019-03-29T02:06:56.641Z,9.53
2019-03-29T02:09:25.053Z,9.37
2019-03-29T02:11:53.688Z,9.00
2019-03-29T02:14:22.302Z,8.13
2019-03-29T02:16:50.794Z,7.17
2019-03-29T02:19:19.363Z,7.50
2019-03-29T02:21:47.902Z,7.50
2019-03-29T02:24:17.742Z,7.37
2019-03-29T02:26:46.231Z,7.13
2019-03-29T02:29:14.776Z,6.93
2019-03-29T02:31:43.290Z,6.57
2019-03-29T02:34:11.749Z,7.40
2019-03-29T02:36:40.310Z,6.30
2019-03-29T02:39:08.794Z,7.00
2019-03-29T02:41:37.350Z,6.80
2019-03-29T02:44:06.564Z,6.70
2019-03-29T02:46:36.121Z,6.97
2019-03-29T02:49:04.689Z,6.93
2019-03-29T02:51:33.236Z,6.40
2019-03-29T02:54:01.806Z,6.57
2019-03-29T02:56:30.412Z,6.00
2019-03-29T02:58:59.091Z,7.27
2019-03-29T03:01:27.576Z,6.67
2019-03-29T03:03:56.060Z,6.70
2019-03-29T03:06:24.603Z,6.83
2019-03-29T03:08:53.094Z,6.70
2019-03-29T03:11:21.656Z,7.63
2019-03-29T03:13:50.199Z,6.57
2019-03-29T03:16:18.828Z,6.53
2019-03-29T03:18:47.374Z,6.47
2019-03-29T03:21:15.851Z,6.23
2019-03-29T03:23:44.324Z,5.97
2019-03-29T03:26:12.823Z,6.40
2019-03-29T03:28:41.372Z,6.30
2019-03-29T03:31:09.928Z,6.23
2019-03-29T03:33:38.471Z,6.23
2019-03-29T03:36:07.005Z,6.27
2019-03-29T03:38:35.496Z,6.43
2019-03-29T03:41:03.992Z,6.00
2019-03-29T03:43:32.537Z,6.40
2019-03-29T03:46:01.019Z,5.60
2019-03-29T03:48:29.499Z,5.73
2019-03-29T03:50:58.113Z,5.70
2019-03-29T03:53:26.684Z,5.70
2019-03-29T03:55:55.636Z,5.80
2019-03-29T03:58:24.199Z,6.00
2019-03-29T04:00:53.850Z,6.23
2019-03-29T04:03:22.401Z,6.20
2019-03-29T04:05:50.944Z,6.00
2019-03-29T04:08:19.777Z,5.17
2019-03-29T04:10:48.242Z,5.30
2019-03-29T04:13:16.866Z,5.30
2019-03-29T04:15:45.406Z,5.53
2019-03-29T04:18:16.085Z,5.57
2019-03-29T04:20:44.081Z,5.93
2019-03-29T04:23:12.560Z,5.13
2019-03-29T04:25:41.039Z,5.23
2019-03-29T04:28:10.554Z,4.87
2019-03-29T04:30:39.026Z,4.77
2019-03-29T04:33:11.063Z,4.30
2019-03-29T04:35:38.243Z,4.70
2019-03-29T04:38:06.800Z,4.47
2019-03-29T04:40:35.401Z,5.10
2019-03-29T04:43:03.876Z,5.40
2019-03-29T04:45:32.351Z,5.07
2019-03-29T04:48:00.836Z,5.57
2019-03-29T04:50:29.442Z,6.23
2019-03-29T04:52:57.997Z,5.17
2019-03-29T04:55:26.556Z,5.87
2019-03-29T04:57:55.099Z,5.10
2019-03-29T05:00:23.602Z,5.67
2019-03-29T05:02:52.062Z,5.70
2019-03-29T05:05:20.676Z,5.33
2019-03-29T05:07:49.083Z,5.43
2019-03-29T05:10:21.562Z,5.77
2019-03-29T05:12:47.834Z,5.67
2019-03-29T05:15:16.318Z,5.87
2019-03-29T05:17:44.867Z,6.97
2019-03-29T05:20:13.491Z,6.03
2019-03-29T05:22:42.052Z,5.30
2019-03-29T05:25:10.608Z,6.10
2019-03-29T05:27:39.146Z,5.40
2019-03-29T05:30:07.639Z,4.97
2019-03-29T05:32:36.122Z,6.10
2019-03-29T05:35:06.325Z,5.10
2019-03-29T05:37:34.807Z,5.43
2019-03-29T05:40:03.881Z,6.30
2019-03-29T05:42:32.405Z,6.40
2019-03-29T05:45:00.816Z,6.87
2019-03-29T05:47:30.203Z,6.20
2019-03-29T05:49:58.735Z,6.83
2019-03-29T05:52:27.221Z,7.20
2019-03-29T05:54:55.789Z,6.40
2019-03-29T05:57:24.411Z,6.73
2019-03-29T05:59:52.954Z,7.10
2019-03-29T06:02:21.516Z,7.30
2019-03-29T06:04:50.064Z,7.10
2019-03-29T06:07:18.617Z,6.83
2019-03-29T06:09:47.255Z,6.37
2019-03-29T06:12:15.802Z,7.10
2019-03-29T06:14:44.303Z,6.27
2019-03-29T06:17:12.775Z,6.17
2019-03-29T06:19:41.327Z,5.90
2019-03-29T06:22:09.884Z,5.30
2019-03-29T06:24:38.375Z,5.80
2019-03-29T06:27:06.923Z,6.47
2019-03-29T06:29:35.404Z,6.67
2019-03-29T06:32:05.814Z,6.93
2019-03-29T06:34:34.499Z,7.27
2019-03-29T06:37:03.062Z,7.27
2019-03-29T06:39:31.619Z,7.10
2019-03-29T06:42:00.243Z,7.67
2019-03-29T06:44:28.806Z,6.90
2019-03-29T06:46:57.364Z,8.20
2019-03-29T06:49:25.971Z,7.50
2019-03-29T06:51:54.606Z,7.87
2019-03-29T06:54:23.089Z,7.83
2019-03-29T06:56:51.634Z,8.20
2019-03-29T06:59:20.178Z,8.13
2019-03-29T07:01:48.810Z,7.60
2019-03-29T07:04:17.372Z,8.80
2019-03-29T07:06:45.781Z,8.77
2019-03-29T07:09:14.401Z,8.37
2019-03-29T07:11:43.036Z,7.90
2019-03-29T07:14:11.513Z,7.57
2019-03-29T07:16:40.071Z,7.87
2019-03-29T07:19:08.734Z,7.90
2019-03-29T07:21:37.365Z,8.23
2019-03-29T07:24:06.218Z,9.13
2019-03-29T07:26:34.896Z,8.50
2019-03-29T07:29:03.518Z,8.47
2019-03-29T07:31:32.093Z,7.87
2019-03-29T07:34:00.728Z,7.13
2019-03-29T07:36:29.281Z,8.30
2019-03-29T07:38:57.759Z,7.60
2019-03-29T07:41:32.207Z,7.63
2019-03-29T07:43:56.572Z,7.67
2019-03-29T07:46:25.027Z,7.73
2019-03-29T07:48:53.650Z,8.03
2019-03-29T07:51:22.131Z,7.40
2019-03-29T07:53:50.628Z,7.50
2019-03-29T07:56:19.253Z,8.40
2019-03-29T07:58:47.733Z,12.73
2019-03-29T08:01:16.295Z,7.50
2019-03-29T08:03:44.930Z,7.13
2019-03-29T08:06:13.415Z,7.37
2019-03-29T08:08:42.182Z,7.30
2019-03-29T08:11:10.868Z,7.07
2019-03-29T08:13:39.426Z,7.00
2019-03-29T08:16:07.927Z,7.37
2019-03-29T08:18:36.471Z,6.50
2019-03-29T08:21:04.978Z,5.63
2019-03-29T08:23:33.516Z,6.17
2019-03-29T08:26:02.152Z,6.93
2019-03-29T08:28:30.601Z,85.03
2019-03-29T08:30:59.428Z,83.47
2019-03-29T08:33:28.130Z,81.70
2019-03-29T08:35:57.493Z,82.60
2019-03-29T08:38:25.731Z,86.50
2019-03-29T08:40:54.381Z,113.40
2019-03-29T08:43:23.015Z,88.90
2019-03-29T08:45:51.579Z,91.13
2019-03-29T08:48:19.990Z,87.10
2019-03-29T08:50:48.562Z,88.07
2019-03-29T08:53:17.059Z,81.97
2019-03-29T08:55:46.469Z,86.77
2019-03-29T08:58:14.834Z,83.33
2019-03-29T09:00:43.092Z,85.07
2019-03-29T09:03:11.647Z,82.13
2019-03-29T09:05:40.177Z,84.10
2019-03-29T09:08:08.805Z,83.23
2019-03-29T09:10:40.117Z,81.13
2019-03-29T09:13:09.941Z,85.03
2019-03-29T09:15:38.201Z,82.33
2019-03-29T09:18:06.522Z,85.13
2019-03-29T09:20:34.960Z,82.00
2019-03-29T09:23:03.478Z,87.47
2019-03-29T09:25:32.059Z,94.13
2019-03-29T09:28:01.054Z,121.87
2019-03-29T09:30:29.731Z,100.00
2019-03-29T09:32:58.110Z,98.87
2019-03-29T09:35:26.994Z,86.40
2019-03-29T09:37:57.201Z,93.17
2019-03-29T09:40:25.908Z,87.03
2019-03-29T09:43:06.893Z,117.10
2019-03-29T09:45:24.522Z,102.90
2019-03-29T09:47:55.802Z,93.03
2019-03-29T09:50:23.517Z,83.23
2019-03-29T09:52:52.229Z,88.77
2019-03-29T09:55:21.021Z,91.67
2019-03-29T09:57:49.321Z,83.07
2019-03-29T10:00:22.764Z,82.40
2019-03-29T10:02:47.822Z,84.27
2019-03-29T10:05:19.677Z,95.43
2019-03-29T10:07:46.711Z,88.00
2019-03-29T10:10:15.323Z,83.97
2019-03-29T10:12:44.197Z,85.33
2019-03-29T10:15:12.865Z,82.40
2019-03-29T10:17:41.182Z,86.30
2019-03-29T10:20:09.859Z,91.40
2019-03-29T10:22:38.101Z,81.70
2019-03-29T10:25:18.604Z,80.90
2019-03-29T10:27:37.201Z,91.70
2019-03-29T10:30:08.296Z,83.43
2019-03-29T10:32:36.649Z,100.20
2019-03-29T10:35:06.699Z,102.13
2019-03-29T10:37:35.088Z,101.67
2019-03-29T10:40:06.432Z,84.57
2019-03-29T10:42:34.843Z,89.53
2019-03-29T10:45:03.643Z,85.90
2019-03-29T10:47:43.001Z,87.83
2019-03-29T10:50:02.420Z,86.90
2019-03-29T10:52:31.048Z,127.70
2019-03-29T10:54:59.432Z,99.50
2019-03-29T10:57:27.786Z,120.87
2019-03-29T10:59:56.158Z,84.97
2019-03-29T11:02:24.682Z,93.70
2019-03-29T11:04:53.245Z,86.33
2019-03-29T11:07:21.554Z,85.83
2019-03-29T11:09:49.872Z,89.37
2019-03-29T11:12:18.452Z,110.60
2019-03-29T11:14:48.580Z,84.90
2019-03-29T11:17:17.323Z,94.67
2019-03-29T11:19:45.612Z,86.30
2019-03-29T11:22:13.961Z,88.77
2019-03-29T11:24:42.332Z,92.03
2019-03-29T11:27:10.658Z,92.40
2019-03-29T11:29:38.838Z,121.23
2019-03-29T11:32:07.462Z,92.07
2019-03-29T11:34:35.706Z,84.27
2019-03-29T11:37:03.894Z,88.30
2019-03-29T11:39:32.290Z,89.23
2019-03-29T11:42:03.377Z,86.83
2019-03-29T11:44:30.827Z,87.27
2019-03-29T11:46:59.147Z,87.03
2019-03-29T11:49:27.816Z,86.87
2019-03-29T11:51:56.391Z,90.00
2019-03-29T11:54:25.007Z,89.63
2019-03-29T11:56:53.583Z,88.77
2019-03-29T11:59:22.216Z,85.10
2019-03-29T12:01:50.787Z,86.20
2019-03-29T12:04:19.363Z,83.77
2019-03-29T12:06:47.900Z,85.70
2019-03-29T12:09:16.514Z,90.53
2019-03-29T12:11:44.765Z,90.40
2019-03-29T12:14:13.127Z,89.87
2019-03-29T12:16:41.486Z,87.27
2019-03-29T12:19:10.047Z,87.87
2019-03-29T12:21:38.695Z,87.50
2019-03-29T12:24:07.322Z,90.30
2019-03-29T12:26:35.621Z,89.87
2019-03-29T12:29:04.201Z,89.80
2019-03-29T12:31:32.766Z,88.87
2019-03-29T12:34:01.280Z,88.60
2019-03-29T12:36:29.914Z,88.07
2019-03-29T12:38:58.463Z,85.87
2019-03-29T12:41:27.906Z,90.10
2019-03-29T12:43:56.414Z,87.80
2019-03-29T12:46:24.707Z,88.50
2019-03-29T12:48:53.270Z,90.77
2019-03-29T12:51:21.534Z,90.30
2019-03-29T12:53:50.088Z,89.73
2019-03-29T12:56:19.064Z,88.63
2019-03-29T12:58:47.318Z,93.30
2019-03-29T13:01:15.943Z,88.67
2019-03-29T13:03:44.845Z,91.67
2019-03-29T13:06:13.415Z,89.43
2019-03-29T13:08:41.721Z,88.27
2019-03-29T13:11:10.612Z,89.33
2019-03-29T13:13:39.039Z,90.47
2019-03-29T13:16:07.398Z,88.93
2019-03-29T13:18:35.957Z,88.23
2019-03-29T13:21:04.373Z,91.17
2019-03-29T13:23:32.997Z,89.07
2019-03-29T13:26:01.510Z,88.03
2019-03-29T13:28:30.134Z,89.83
2019-03-29T13:30:58.823Z,89.20
2019-03-29T13:33:27.399Z,88.43
2019-03-29T13:35:55.909Z,87.17
2019-03-29T13:38:24.459Z,89.87
2019-03-29T13:40:52.948Z,90.47
2019-03-29T13:43:22.486Z,88.60
2019-03-29T13:45:50.981Z,90.90
2019-03-29T13:48:19.547Z,91.33
2019-03-29T13:50:48.115Z,89.97
2019-03-29T13:53:16.765Z,85.97
2019-03-29T13:55:45.409Z,89.07
2019-03-29T13:58:13.990Z,89.33
2019-03-29T14:00:42.413Z,89.83
2019-03-29T14:03:11.062Z,92.87
2019-03-29T14:05:39.692Z,90.77
2019-03-29T14:08:08.727Z,95.20
2019-03-29T14:10:37.321Z,85.37
2019-03-29T14:13:05.899Z,93.83
2019-03-29T14:15:34.704Z,90.87
2019-03-29T14:18:03.195Z,89.83
2019-03-29T14:20:32.840Z,90.70
2019-03-29T14:23:01.783Z,94.20
2019-03-29T14:25:30.402Z,99.70
2019-03-29T14:27:58.723Z,90.60
2019-03-29T14:30:27.554Z,91.07
2019-03-29T14:32:55.858Z,94.03
2019-03-29T14:35:24.139Z,89.80
2019-03-29T14:37:52.444Z,86.37
2019-03-29T14:40:21.192Z,109.03
2019-03-29T14:42:49.876Z,114.80
2019-03-29T14:45:18.638Z,93.93
2019-03-29T14:47:47.454Z,86.53
2019-03-29T14:50:15.914Z,89.93
2019-03-29T14:52:44.221Z,89.77
2019-03-29T14:55:12.563Z,95.83
2019-03-29T14:57:41.165Z,87.00
2019-03-29T15:00:14.169Z,84.57
2019-03-29T15:02:42.819Z,85.07
2019-03-29T15:05:12.676Z,90.97
2019-03-29T15:07:42.122Z,85.27
2019-03-29T15:10:14.988Z,85.47
2019-03-29T15:12:44.456Z,86.43
2019-03-29T15:15:13.234Z,88.10
2019-03-29T15:17:41.794Z,86.17
2019-03-29T15:20:11.036Z,85.83
2019-03-29T15:22:39.588Z,84.87
2019-03-29T15:25:07.915Z,87.23
2019-03-29T15:27:36.573Z,87.83
2019-03-29T15:30:07.127Z,85.23
2019-03-29T15:32:35.825Z,85.67
2019-03-29T15:35:05.202Z,83.43
